Saint Poelten, Austria
Current Conditions -  °F | °C
As of 10:50 PM on Monday 24 Nov 2014 (Local Time) from LOXT Reporting Station
Broken Clouds Broken Clouds  
Wind Chill: 41°   Ceiling: 1200
Heat Index: 41°   Visibility: 4mi
Dew Point: 37°   Wind: 2mph
Humidity: 87%   Direction: 60°ENE
Pressure: 30.33"   Gusts: NA
Location:  48.2°N, 15.62°E
Report Text: LOXT 242050Z 06002KT 7000 BKN012ST 05/03 Q1027 RMK OVC
Loading
Personal Weather Stations






























Interactive Weather Map New forecast layout! Learn more

10-Day Weather Forecast

Advertisements
Track Severe Weather on mobile